createdAt,value
2023-02-05T00:00:23.269Z,-1.40
2023-02-05T00:01:45.336Z,-1.50
2023-02-05T00:03:07.434Z,-1.50
2023-02-05T00:04:29.535Z,-1.50
2023-02-05T00:05:51.534Z,-1.50
2023-02-05T00:07:13.620Z,-1.50
2023-02-05T00:08:35.755Z,-1.50
2023-02-05T00:09:57.790Z,-1.50
2023-02-05T00:11:19.919Z,-1.50
2023-02-05T00:12:42.003Z,-1.50
2023-02-05T00:14:04.324Z,-1.50
2023-02-05T00:15:26.362Z,-1.50
2023-02-05T00:16:48.628Z,-1.50
2023-02-05T00:18:10.707Z,-1.40
2023-02-05T00:19:32.948Z,-1.50
2023-02-05T00:20:55.001Z,-1.50
2023-02-05T00:22:17.040Z,-1.50
2023-02-05T00:23:40.130Z,-1.40
2023-02-05T00:25:02.166Z,-1.40
2023-02-05T00:26:24.312Z,-1.40
2023-02-05T00:27:46.463Z,-1.40
2023-02-05T00:29:08.562Z,-1.40
2023-02-05T00:30:30.627Z,-1.40
2023-02-05T00:31:53.056Z,-1.40
2023-02-05T00:33:15.312Z,-1.40
2023-02-05T00:34:37.636Z,-1.40
2023-02-05T00:35:59.687Z,-1.40
2023-02-05T00:37:21.779Z,-1.40
2023-02-05T00:38:44.977Z,-1.40
2023-02-05T00:40:07.358Z,-1.40
2023-02-05T00:41:29.366Z,-1.40
2023-02-05T00:42:51.899Z,-1.40
2023-02-05T00:44:13.986Z,-1.40
2023-02-05T00:45:36.486Z,-1.40
2023-02-05T00:46:58.589Z,-1.40
2023-02-05T00:48:20.959Z,-1.40
2023-02-05T00:49:43.072Z,-1.40
2023-02-05T00:51:05.516Z,-1.40
2023-02-05T00:52:27.557Z,-1.40
2023-02-05T00:53:49.640Z,-1.40
2023-02-05T00:55:11.693Z,-1.40
2023-02-05T00:56:33.768Z,-1.40
2023-02-05T00:57:56.302Z,-1.40
2023-02-05T00:59:18.377Z,-1.40
2023-02-05T01:00:40.598Z,-1.40
2023-02-05T01:02:02.674Z,-1.50
2023-02-05T01:03:24.730Z,-1.50
2023-02-05T01:04:46.840Z,-1.50
2023-02-05T01:06:09.201Z,-1.50
2023-02-05T01:07:31.311Z,-1.50
2023-02-05T01:08:53.505Z,-1.40
2023-02-05T01:10:15.858Z,-1.40
2023-02-05T01:11:38.121Z,-1.40
2023-02-05T01:13:00.216Z,-1.40
2023-02-05T01:14:22.335Z,-1.40
2023-02-05T01:15:44.963Z,-1.40
2023-02-05T01:17:07.216Z,-1.50
2023-02-05T01:18:29.306Z,-1.50
2023-02-05T01:19:51.354Z,-1.50
2023-02-05T01:21:13.460Z,-1.50
2023-02-05T01:22:35.680Z,-1.50
2023-02-05T01:23:59.936Z,-1.50
2023-02-05T01:25:21.985Z,-1.50
2023-02-05T01:26:44.121Z,-1.50
2023-02-05T01:28:06.839Z,-1.50
2023-02-05T01:29:30.476Z,-1.50
2023-02-05T01:30:52.756Z,-1.50
2023-02-05T01:32:14.894Z,-1.50
2023-02-05T01:33:36.923Z,-1.50
2023-02-05T01:34:58.979Z,-1.50
2023-02-05T01:36:21.071Z,-1.50
2023-02-05T01:37:43.092Z,-1.50
2023-02-05T01:39:05.179Z,-1.50
2023-02-05T01:40:27.514Z,-1.40
2023-02-05T01:41:50.046Z,-1.40
2023-02-05T01:43:17.573Z,-1.40
2023-02-05T01:44:40.821Z,-1.40
2023-02-05T01:46:24.266Z,-1.40
2023-02-05T01:47:46.325Z,-1.30
2023-02-05T01:49:14.997Z,-1.30
2023-02-05T01:50:46.506Z,-1.30
2023-02-05T01:52:17.699Z,-1.30
2023-02-05T01:53:40.479Z,-1.40
2023-02-05T01:55:03.561Z,-1.40
2023-02-05T01:56:32.030Z,-1.30
2023-02-05T01:57:55.000Z,-1.30
2023-02-05T01:59:21.522Z,-1.30
2023-02-05T02:00:43.875Z,-1.30
2023-02-05T02:02:07.210Z,-1.30
2023-02-05T02:03:31.262Z,-1.30
2023-02-05T02:05:00.950Z,-1.30
2023-02-05T02:06:23.055Z,-1.30
2023-02-05T02:07:45.244Z,-1.30
2023-02-05T02:09:08.042Z,-1.30
2023-02-05T02:10:30.749Z,-1.30
2023-02-05T02:11:53.101Z,-1.30
2023-02-05T02:13:16.108Z,-1.30
2023-02-05T02:14:39.602Z,-1.30
2023-02-05T02:16:03.113Z,-1.30
2023-02-05T02:17:27.365Z,-1.20
2023-02-05T02:18:50.044Z,-1.20
2023-02-05T02:20:20.226Z,-1.20
2023-02-05T02:22:19.263Z,-1.20
2023-02-05T02:24:02.850Z,-1.20
2023-02-05T02:25:27.553Z,-1.20
2023-02-05T02:27:20.438Z,-1.20
2023-02-05T02:28:48.437Z,-1.20
2023-02-05T02:30:52.627Z,-1.20
2023-02-05T02:32:42.968Z,-1.20
2023-02-05T02:34:15.099Z,-1.10
2023-02-05T02:35:54.107Z,-1.10
2023-02-05T02:37:34.355Z,-1.20
2023-02-05T02:39:20.445Z,-1.20
2023-02-05T02:40:47.579Z,-1.20
2023-02-05T02:42:23.741Z,-1.20
2023-02-05T02:43:55.830Z,-1.20
2023-02-05T02:45:19.889Z,-1.20
2023-02-05T02:46:51.652Z,-1.20
2023-02-05T02:48:16.681Z,-1.20
2023-02-05T02:49:44.203Z,-1.20
2023-02-05T02:51:09.981Z,-1.20
2023-02-05T02:52:36.624Z,-1.20
2023-02-05T02:54:01.875Z,-1.30
2023-02-05T02:55:25.540Z,-1.30
2023-02-05T02:56:50.276Z,-1.30
2023-02-05T02:58:29.785Z,-1.30
2023-02-05T02:59:55.121Z,-1.30
2023-02-05T03:01:21.227Z,-1.40
2023-02-05T03:02:45.378Z,-1.40
2023-02-05T03:04:24.182Z,-1.50
2023-02-05T03:05:48.905Z,-1.50
2023-02-05T03:07:20.536Z,-1.50
2023-02-05T03:08:47.985Z,-1.60
2023-02-05T03:10:36.029Z,-1.60
2023-02-05T03:11:58.760Z,-1.60
2023-02-05T03:13:20.991Z,-1.70
2023-02-05T03:14:43.067Z,-1.70
2023-02-05T03:16:05.982Z,-1.70
2023-02-05T03:17:29.307Z,-1.70
2023-02-05T03:18:51.563Z,-1.80
2023-02-05T03:20:22.405Z,-1.80
2023-02-05T03:21:49.871Z,-1.80
2023-02-05T03:23:11.963Z,-1.80
2023-02-05T03:24:34.065Z,-1.90
2023-02-05T03:25:56.385Z,-1.80
2023-02-05T03:27:18.561Z,-1.80
2023-02-05T03:28:40.633Z,-1.80
2023-02-05T03:30:04.927Z,-1.90
2023-02-05T03:32:06.226Z,-1.80
2023-02-05T03:33:37.338Z,-1.90
2023-02-05T03:34:59.388Z,-1.80
2023-02-05T03:36:42.067Z,-1.80
2023-02-05T03:38:29.556Z,-1.80
2023-02-05T03:40:02.855Z,-1.80
2023-02-05T03:41:58.152Z,-1.80
2023-02-05T03:43:41.587Z,-1.80
2023-02-05T03:45:12.794Z,-1.80
2023-02-05T03:46:43.665Z,-1.70
2023-02-05T03:48:39.758Z,-1.70
2023-02-05T03:50:19.631Z,-1.70
2023-02-05T03:51:55.364Z,-1.70
2023-02-05T03:53:24.155Z,-1.70
2023-02-05T03:55:07.009Z,-1.70
2023-02-05T03:56:50.681Z,-1.70
2023-02-05T03:58:25.653Z,-1.70
2023-02-05T03:59:49.029Z,-1.70
2023-02-05T04:01:12.175Z,-1.70
2023-02-05T04:02:34.535Z,-1.70
2023-02-05T04:03:56.776Z,-1.70
2023-02-05T04:05:22.757Z,-1.70
2023-02-05T04:06:47.833Z,-1.70
2023-02-05T04:08:09.913Z,-1.70
2023-02-05T04:09:31.947Z,-1.70
2023-02-05T04:10:54.024Z,-1.70
2023-02-05T04:12:16.085Z,-1.70
2023-02-05T04:13:38.152Z,-1.70
2023-02-05T04:15:00.342Z,-1.70
2023-02-05T04:16:22.409Z,-1.70
2023-02-05T04:17:44.474Z,-1.70
2023-02-05T04:19:06.526Z,-1.70
2023-02-05T04:20:28.642Z,-1.70
2023-02-05T04:21:50.646Z,-1.70
2023-02-05T04:23:13.119Z,-1.70
2023-02-05T04:24:35.150Z,-1.60
2023-02-05T04:25:57.295Z,-1.60
2023-02-05T04:27:19.338Z,-1.60
2023-02-05T04:28:41.398Z,-1.60
2023-02-05T04:30:03.706Z,-1.60
2023-02-05T04:31:25.812Z,-1.60
2023-02-05T04:32:47.881Z,-1.70
2023-02-05T04:34:09.898Z,-1.60
2023-02-05T04:35:33.092Z,-1.70
2023-02-05T04:36:55.238Z,-1.80
2023-02-05T04:38:17.222Z,-1.80
2023-02-05T04:39:39.229Z,-1.80
2023-02-05T04:41:01.356Z,-1.90
2023-02-05T04:42:23.393Z,-1.90
2023-02-05T04:43:45.484Z,-1.90
2023-02-05T04:45:08.091Z,-1.90
2023-02-05T04:46:30.158Z,-1.90
2023-02-05T04:47:52.188Z,-2.00
2023-02-05T04:49:14.256Z,-1.90
2023-02-05T04:50:38.643Z,-2.00
2023-02-05T04:52:01.000Z,-2.00
2023-02-05T04:53:23.017Z,-2.00
2023-02-05T04:54:45.091Z,-2.00
2023-02-05T04:56:15.671Z,-1.90
2023-02-05T04:57:37.698Z,-1.90
2023-02-05T04:58:59.781Z,-1.90
2023-02-05T05:00:21.979Z,-1.90
2023-02-05T05:01:43.995Z,-1.90
2023-02-05T05:03:06.393Z,-1.90
2023-02-05T05:04:28.391Z,-1.90
2023-02-05T05:05:50.582Z,-1.90
2023-02-05T05:07:12.657Z,-1.90
2023-02-05T05:08:34.864Z,-1.80
2023-02-05T05:09:56.903Z,-1.80
2023-02-05T05:11:19.956Z,-1.80
2023-02-05T05:12:42.157Z,-1.80
2023-02-05T05:14:04.206Z,-1.80
2023-02-05T05:15:26.221Z,-1.80
2023-02-05T05:16:50.021Z,-1.80
2023-02-05T05:18:12.037Z,-1.80
2023-02-05T05:19:34.064Z,-1.90
2023-02-05T05:20:56.122Z,-1.80
2023-02-05T05:22:18.155Z,-1.80
2023-02-05T05:23:40.207Z,-1.80
2023-02-05T05:25:02.287Z,-1.80
2023-02-05T05:26:24.325Z,-1.80
2023-02-05T05:27:46.434Z,-1.80
2023-02-05T05:29:08.465Z,-1.80
2023-02-05T05:30:30.495Z,-1.80
2023-02-05T05:31:53.419Z,-1.90
2023-02-05T05:33:16.254Z,-1.90
2023-02-05T05:34:38.335Z,-1.80
2023-02-05T05:36:00.372Z,-1.90
2023-02-05T05:37:22.552Z,-1.90
2023-02-05T05:38:44.598Z,-1.80
2023-02-05T05:40:25.945Z,-1.90
2023-02-05T05:42:06.518Z,-1.90
2023-02-05T05:43:46.955Z,-1.90
2023-02-05T05:45:10.224Z,-1.90
2023-02-05T05:46:32.623Z,-1.90
2023-02-05T05:47:55.079Z,-1.90
2023-02-05T05:49:17.109Z,-1.90
2023-02-05T05:50:39.140Z,-2.00
2023-02-05T05:52:01.293Z,-2.00
2023-02-05T05:53:23.735Z,-1.90
2023-02-05T05:54:46.815Z,-2.00
2023-02-05T05:56:08.868Z,-1.90
2023-02-05T05:57:30.943Z,-1.90
2023-02-05T05:58:53.118Z,-1.90
2023-02-05T06:00:15.471Z,-1.90
2023-02-05T06:01:37.484Z,-1.90
2023-02-05T06:02:59.642Z,-1.90
2023-02-05T06:04:21.800Z,-1.90
2023-02-05T06:05:43.947Z,-1.80
2023-02-05T06:07:06.122Z,-1.80
2023-02-05T06:08:28.180Z,-1.80
2023-02-05T06:09:50.228Z,-1.80
2023-02-05T06:11:12.342Z,-1.80
2023-02-05T06:12:34.379Z,-1.80
2023-02-05T06:13:56.391Z,-1.80
2023-02-05T06:15:19.292Z,-1.80
2023-02-05T06:16:41.485Z,-1.80
2023-02-05T06:18:03.626Z,-1.80
2023-02-05T06:19:25.730Z,-1.80
2023-02-05T06:20:47.820Z,-1.80
2023-02-05T06:22:09.848Z,-1.80
2023-02-05T06:23:33.511Z,-1.80
2023-02-05T06:24:55.932Z,-1.80
2023-02-05T06:26:17.993Z,-1.80
2023-02-05T06:27:40.055Z,-1.80
2023-02-05T06:29:03.367Z,-1.80
2023-02-05T06:30:25.544Z,-1.70
2023-02-05T06:31:47.708Z,-1.70
2023-02-05T06:33:11.536Z,-1.70
2023-02-05T06:34:33.676Z,-1.70
2023-02-05T06:35:55.933Z,-1.70
2023-02-05T06:37:17.992Z,-1.70
2023-02-05T06:38:40.026Z,-1.70
2023-02-05T06:40:02.138Z,-1.70
2023-02-05T06:41:24.222Z,-1.70
2023-02-05T06:42:46.431Z,-1.60
2023-02-05T06:44:08.559Z,-1.60
2023-02-05T06:45:30.650Z,-1.60
2023-02-05T06:46:52.766Z,-1.60
2023-02-05T06:48:14.931Z,-1.60
2023-02-05T06:49:36.986Z,-1.60
2023-02-05T06:50:59.018Z,-1.60
2023-02-05T06:52:21.329Z,-1.50
2023-02-05T06:53:43.742Z,-1.50
2023-02-05T06:55:06.258Z,-1.50
2023-02-05T06:56:28.422Z,-1.50
2023-02-05T06:57:50.541Z,-1.50
2023-02-05T06:59:12.585Z,-1.50
2023-02-05T07:00:35.325Z,-1.50
2023-02-05T07:01:57.424Z,-1.50
2023-02-05T07:03:19.564Z,-1.50
2023-02-05T07:04:41.805Z,-1.40
2023-02-05T07:06:05.913Z,-1.40
2023-02-05T07:07:28.288Z,-1.40
2023-02-05T07:08:51.445Z,-1.40
2023-02-05T07:10:13.628Z,-1.40
2023-02-05T07:11:35.741Z,-1.40
2023-02-05T07:12:57.873Z,-1.40
2023-02-05T07:14:19.899Z,-1.40
2023-02-05T07:15:41.952Z,-1.40
2023-02-05T07:17:04.198Z,-1.40
2023-02-05T07:18:26.233Z,-1.30
2023-02-05T07:19:48.266Z,-1.30
2023-02-05T07:21:15.948Z,-1.30
2023-02-05T07:22:37.966Z,-1.30
2023-02-05T07:24:00.135Z,-1.30
2023-02-05T07:25:22.317Z,-1.30
2023-02-05T07:26:45.303Z,-1.30
2023-02-05T07:28:09.067Z,-1.20
2023-02-05T07:29:31.216Z,-1.20
2023-02-05T07:30:53.337Z,-1.20
2023-02-05T07:32:15.525Z,-1.20
2023-02-05T07:33:38.102Z,-1.10
2023-02-05T07:35:00.166Z,-1.10
2023-02-05T07:36:22.192Z,-1.10
2023-02-05T07:37:44.291Z,-1.00
2023-02-05T07:39:06.379Z,-1.00
2023-02-05T07:40:28.522Z,-1.00
2023-02-05T07:41:51.259Z,-0.90
2023-02-05T07:43:13.370Z,-0.90
2023-02-05T07:44:35.446Z,-0.90
2023-02-05T07:45:59.682Z,-0.80
2023-02-05T07:47:21.724Z,-0.80
2023-02-05T07:48:43.758Z,-0.80
2023-02-05T07:50:06.193Z,-0.70
2023-02-05T07:51:28.352Z,-0.70
2023-02-05T07:52:50.400Z,-0.70
2023-02-05T07:54:14.565Z,-0.60
2023-02-05T07:55:36.779Z,-0.60
2023-02-05T07:57:00.394Z,-0.60
2023-02-05T07:58:22.452Z,-0.50
2023-02-05T07:59:44.499Z,-0.50
2023-02-05T08:01:07.082Z,-0.40
2023-02-05T08:02:29.138Z,-0.40
2023-02-05T08:03:51.190Z,-0.30
2023-02-05T08:05:13.378Z,-0.30
2023-02-05T08:06:35.475Z,-0.30
2023-02-05T08:07:57.680Z,-0.30
2023-02-05T08:09:19.746Z,-0.20
2023-02-05T08:10:41.770Z,-0.20
2023-02-05T08:12:04.141Z,-0.10
2023-02-05T08:13:26.319Z,-0.10
2023-02-05T08:14:48.378Z,0.00
2023-02-05T08:16:11.427Z,0.00
2023-02-05T08:17:33.536Z,0.10
2023-02-05T08:18:55.598Z,0.10
2023-02-05T08:20:17.827Z,0.20
2023-02-05T08:21:39.943Z,0.20
2023-02-05T08:23:05.058Z,0.20
2023-02-05T08:24:27.207Z,0.30
2023-02-05T08:25:53.852Z,0.30
2023-02-05T08:27:15.957Z,0.40
2023-02-05T08:28:37.987Z,0.40
2023-02-05T08:30:00.100Z,0.50
2023-02-05T08:31:22.237Z,0.50
2023-02-05T08:32:48.196Z,0.60
2023-02-05T08:34:10.248Z,0.60
2023-02-05T08:35:32.678Z,0.70
2023-02-05T08:36:55.014Z,0.70
2023-02-05T08:38:17.318Z,0.70
2023-02-05T08:39:39.462Z,0.80
2023-02-05T08:41:19.260Z,0.80
2023-02-05T08:42:41.381Z,0.90
2023-02-05T08:44:03.704Z,0.90
2023-02-05T08:45:26.391Z,1.00
2023-02-05T08:46:50.472Z,1.10
2023-02-05T08:48:12.674Z,1.10
2023-02-05T08:49:35.104Z,1.10
2023-02-05T08:50:57.449Z,1.20
2023-02-05T08:52:19.717Z,1.20
2023-02-05T08:53:42.063Z,1.20
2023-02-05T08:55:04.525Z,1.30
2023-02-05T08:56:26.534Z,1.30
2023-02-05T08:57:48.600Z,1.40
2023-02-05T08:59:11.988Z,1.40
2023-02-05T09:00:37.868Z,1.50
2023-02-05T09:01:59.971Z,1.50
2023-02-05T09:03:22.047Z,1.60
2023-02-05T09:04:44.154Z,1.70
2023-02-05T09:06:08.320Z,1.70
2023-02-05T09:07:30.988Z,1.80
2023-02-05T09:08:53.067Z,1.90
2023-02-05T09:10:15.178Z,1.90
2023-02-05T09:11:37.483Z,1.90
2023-02-05T09:12:59.502Z,1.90
2023-02-05T09:14:21.676Z,2.00
2023-02-05T09:15:47.737Z,2.00
2023-02-05T09:17:14.228Z,2.00
2023-02-05T09:18:36.314Z,2.00
2023-02-05T09:19:58.521Z,2.10
2023-02-05T09:21:20.675Z,2.10
2023-02-05T09:22:42.695Z,2.20
2023-02-05T09:24:05.067Z,2.20
2023-02-05T09:25:29.250Z,2.20
2023-02-05T09:26:51.577Z,2.20
2023-02-05T09:28:14.870Z,2.20
2023-02-05T09:29:37.020Z,2.20
2023-02-05T09:30:59.162Z,2.20
2023-02-05T09:32:21.310Z,2.20
2023-02-05T09:33:46.327Z,2.30
2023-02-05T09:35:08.687Z,2.30
2023-02-05T09:36:30.719Z,2.30
2023-02-05T09:37:52.717Z,2.30
2023-02-05T09:39:30.796Z,2.40
2023-02-05T09:40:56.844Z,2.40
2023-02-05T09:42:47.154Z,2.40
2023-02-05T09:44:29.958Z,2.40
2023-02-05T09:45:55.635Z,2.40
2023-02-05T09:47:45.926Z,2.50
2023-02-05T09:49:32.467Z,2.50
2023-02-05T09:50:57.958Z,2.60
2023-02-05T09:52:27.212Z,2.60
2023-02-05T09:53:55.880Z,2.60
2023-02-05T09:55:23.700Z,2.70
2023-02-05T09:56:48.030Z,2.70
2023-02-05T09:58:21.358Z,2.80
2023-02-05T09:59:46.615Z,2.80
2023-02-05T10:01:20.811Z,2.80
2023-02-05T10:03:15.596Z,2.80
2023-02-05T10:04:37.742Z,2.80
2023-02-05T10:06:13.121Z,2.90
2023-02-05T10:07:59.048Z,3.00
2023-02-05T10:09:39.827Z,2.90
2023-02-05T10:11:04.331Z,3.00
2023-02-05T10:12:46.304Z,3.00
2023-02-05T10:14:11.369Z,3.00
2023-02-05T10:16:15.111Z,3.10
2023-02-05T10:18:06.136Z,3.00
2023-02-05T10:19:35.110Z,3.10
2023-02-05T10:21:15.951Z,3.10
2023-02-05T10:22:41.057Z,3.10
2023-02-05T10:24:20.920Z,3.10
2023-02-05T10:25:47.531Z,3.10
2023-02-05T10:27:28.278Z,3.10
2023-02-05T10:29:16.068Z,3.20
2023-02-05T10:31:03.670Z,3.20
2023-02-05T10:32:48.342Z,3.30
2023-02-05T10:34:34.656Z,3.30
2023-02-05T10:36:01.139Z,3.30
2023-02-05T10:37:36.728Z,3.40
2023-02-05T10:38:59.648Z,3.40
2023-02-05T10:40:39.205Z,3.40
2023-02-05T10:42:27.390Z,3.40
2023-02-05T10:43:53.729Z,3.50
2023-02-05T10:45:20.975Z,3.60
2023-02-05T10:46:51.665Z,3.60
2023-02-05T10:48:29.302Z,3.60
2023-02-05T10:49:55.375Z,3.60
2023-02-05T10:51:27.835Z,3.60
2023-02-05T10:52:49.946Z,3.60
2023-02-05T10:54:36.088Z,3.70
2023-02-05T10:55:59.964Z,3.70
2023-02-05T10:57:23.653Z,3.70
2023-02-05T10:58:57.004Z,3.70
2023-02-05T11:00:21.873Z,3.70
2023-02-05T11:01:44.856Z,3.80
2023-02-05T11:03:07.794Z,3.80
2023-02-05T11:04:36.040Z,3.90
2023-02-05T11:05:59.375Z,3.90
2023-02-05T11:07:41.331Z,4.00
2023-02-05T11:09:03.792Z,4.00
2023-02-05T11:10:32.512Z,4.00
2023-02-05T11:12:06.747Z,4.00
2023-02-05T11:13:30.086Z,4.00
2023-02-05T11:14:58.835Z,4.10
2023-02-05T11:16:22.075Z,4.10
2023-02-05T11:17:49.676Z,4.10
2023-02-05T11:19:19.095Z,4.10
2023-02-05T11:20:41.809Z,4.10
2023-02-05T11:22:05.277Z,4.10
2023-02-05T11:23:30.971Z,4.10
2023-02-05T11:25:26.342Z,4.20
2023-02-05T11:26:49.430Z,4.20
2023-02-05T11:28:22.987Z,4.30
2023-02-05T11:29:45.215Z,4.30
2023-02-05T11:31:27.777Z,4.40
2023-02-05T11:32:49.912Z,4.40
2023-02-05T11:34:19.848Z,4.40
2023-02-05T11:35:54.782Z,4.40
2023-02-05T11:37:18.931Z,4.40
2023-02-05T11:38:50.812Z,4.40
2023-02-05T11:40:33.565Z,4.40
2023-02-05T11:41:56.631Z,4.50
2023-02-05T11:43:32.252Z,4.50
2023-02-05T11:45:02.835Z,4.50
2023-02-05T11:46:26.771Z,4.50
2023-02-05T11:47:48.865Z,4.50
2023-02-05T11:49:38.807Z,4.50
2023-02-05T11:51:06.446Z,4.50
2023-02-05T11:52:37.374Z,4.50
2023-02-05T11:54:02.142Z,4.50
2023-02-05T11:55:29.705Z,4.50
2023-02-05T11:57:13.907Z,4.50
2023-02-05T11:58:37.561Z,4.40
2023-02-05T12:00:08.013Z,4.40
2023-02-05T12:01:35.084Z,4.40
2023-02-05T12:03:05.576Z,4.40
2023-02-05T12:04:37.144Z,4.40
2023-02-05T12:06:12.553Z,4.40
2023-02-05T12:07:56.947Z,4.50
2023-02-05T12:09:24.209Z,4.50
2023-02-05T12:11:12.813Z,4.50
2023-02-05T12:12:56.164Z,4.60
2023-02-05T12:14:35.222Z,4.50
2023-02-05T12:16:11.771Z,4.50
2023-02-05T12:18:04.125Z,4.50
2023-02-05T12:19:37.250Z,4.50
2023-02-05T12:21:22.328Z,4.50
2023-02-05T12:22:53.129Z,4.50
2023-02-05T12:24:24.272Z,4.50
2023-02-05T12:25:46.375Z,4.50
2023-02-05T12:27:35.657Z,4.50
2023-02-05T12:29:29.546Z,4.50
2023-02-05T12:31:12.662Z,4.50
2023-02-05T12:33:01.101Z,4.50
2023-02-05T12:34:40.782Z,4.50
2023-02-05T12:36:08.591Z,4.50
2023-02-05T12:38:01.370Z,4.60
2023-02-05T12:39:41.888Z,4.60
2023-02-05T12:41:29.766Z,4.70
2023-02-05T12:43:26.462Z,4.70
2023-02-05T12:45:00.871Z,4.80
2023-02-05T12:46:56.834Z,4.80
2023-02-05T12:48:40.775Z,4.80
2023-02-05T12:50:49.342Z,4.90
2023-02-05T12:52:33.490Z,4.90
2023-02-05T12:54:17.196Z,5.00
2023-02-05T12:56:00.014Z,5.10
2023-02-05T12:57:38.480Z,5.20
2023-02-05T12:59:06.741Z,5.20
2023-02-05T13:00:44.874Z,5.20
2023-02-05T13:02:22.200Z,5.10
2023-02-05T13:03:51.236Z,5.00
2023-02-05T13:05:21.799Z,4.90
2023-02-05T13:06:58.259Z,4.90
2023-02-05T13:08:40.645Z,4.80
2023-02-05T13:10:06.663Z,4.70
2023-02-05T13:11:44.502Z,4.70
2023-02-05T13:13:19.640Z,4.70
2023-02-05T13:14:48.319Z,4.60
2023-02-05T13:16:15.906Z,4.60
2023-02-05T13:17:43.429Z,4.60
2023-02-05T13:19:26.936Z,4.50
2023-02-05T13:21:13.424Z,4.50
2023-02-05T13:23:06.220Z,4.50
2023-02-05T13:25:27.364Z,4.40
2023-02-05T13:27:13.921Z,4.40
2023-02-05T13:28:47.382Z,4.30
2023-02-05T13:30:25.795Z,4.30
2023-02-05T13:31:52.559Z,4.30
2023-02-05T13:33:14.890Z,4.20
2023-02-05T13:34:39.575Z,4.20
2023-02-05T13:36:28.330Z,4.20
2023-02-05T13:38:11.736Z,4.10
2023-02-05T13:39:42.972Z,4.10
2023-02-05T13:41:43.583Z,4.10
2023-02-05T13:43:17.454Z,4.00
2023-02-05T13:44:47.969Z,4.00
2023-02-05T13:46:47.381Z,4.00
2023-02-05T13:48:28.189Z,4.00
2023-02-05T13:50:05.588Z,4.00
2023-02-05T13:51:55.371Z,4.00
2023-02-05T13:53:39.129Z,4.00
2023-02-05T13:55:10.277Z,4.00
2023-02-05T13:56:41.353Z,4.00
2023-02-05T13:58:19.369Z,4.10
2023-02-05T13:59:51.382Z,4.10
2023-02-05T14:01:19.683Z,4.00
2023-02-05T14:02:45.314Z,3.90
2023-02-05T14:04:15.783Z,3.90
2023-02-05T14:05:41.121Z,3.90
2023-02-05T14:07:04.854Z,3.90
2023-02-05T14:08:30.733Z,3.90
2023-02-05T14:10:00.526Z,3.90
2023-02-05T14:11:23.663Z,4.00
2023-02-05T14:12:45.958Z,3.90
2023-02-05T14:14:22.258Z,4.00
2023-02-05T14:15:44.458Z,3.90
2023-02-05T14:17:28.222Z,3.90
2023-02-05T14:19:10.764Z,4.00
2023-02-05T14:20:44.547Z,3.90
2023-02-05T14:22:12.834Z,3.90
2023-02-05T14:23:47.061Z,3.80
2023-02-05T14:25:45.024Z,3.80
2023-02-05T14:27:39.845Z,3.70
2023-02-05T14:29:02.062Z,3.80
2023-02-05T14:30:30.316Z,3.80
2023-02-05T14:31:52.465Z,3.80
2023-02-05T14:33:26.560Z,3.80
2023-02-05T14:34:57.306Z,3.80
2023-02-05T14:36:22.920Z,3.60
2023-02-05T14:37:49.566Z,3.60
2023-02-05T14:39:27.427Z,3.50
2023-02-05T14:41:13.287Z,3.40
2023-02-05T14:42:36.139Z,3.40
2023-02-05T14:44:05.556Z,3.40
2023-02-05T14:45:28.670Z,3.40
2023-02-05T14:47:21.136Z,3.30
2023-02-05T14:48:46.640Z,3.30
2023-02-05T14:50:17.543Z,3.20
2023-02-05T14:51:41.527Z,3.20
2023-02-05T14:53:05.770Z,3.20
2023-02-05T14:54:34.351Z,3.10
2023-02-05T14:55:56.986Z,3.10
2023-02-05T14:57:26.678Z,3.00
2023-02-05T14:59:29.198Z,3.00
2023-02-05T15:00:53.052Z,3.00
2023-02-05T15:02:49.813Z,2.90
2023-02-05T15:04:24.819Z,2.90
2023-02-05T15:05:50.158Z,2.90
2023-02-05T15:07:19.100Z,2.80
2023-02-05T15:08:53.156Z,2.80
2023-02-05T15:10:21.670Z,2.80
2023-02-05T15:12:02.163Z,2.70
2023-02-05T15:13:26.204Z,2.70
2023-02-05T15:14:52.605Z,2.60
2023-02-05T15:16:14.689Z,2.60
2023-02-05T15:17:47.245Z,2.50
2023-02-05T15:19:11.449Z,2.40
2023-02-05T15:20:38.048Z,2.40
2023-02-05T15:22:01.416Z,2.30
2023-02-05T15:23:37.479Z,2.30
2023-02-05T15:25:02.070Z,2.20
2023-02-05T15:26:35.550Z,2.10
2023-02-05T15:28:07.662Z,2.10
2023-02-05T15:29:40.522Z,2.00
2023-02-05T15:31:28.954Z,1.90
2023-02-05T15:32:58.919Z,1.90
2023-02-05T15:34:29.935Z,1.80
2023-02-05T15:35:52.806Z,1.80
2023-02-05T15:37:18.427Z,1.70
2023-02-05T15:38:52.748Z,1.70
2023-02-05T15:40:26.478Z,1.60
2023-02-05T15:41:48.902Z,1.60
2023-02-05T15:43:19.094Z,1.50
2023-02-05T15:44:41.268Z,1.50
2023-02-05T15:46:07.312Z,1.40
2023-02-05T15:47:30.452Z,1.30
2023-02-05T15:48:52.692Z,1.30
2023-02-05T15:50:15.221Z,1.20
2023-02-05T15:51:37.829Z,1.20
2023-02-05T15:53:00.399Z,1.10
2023-02-05T15:54:23.375Z,1.00
2023-02-05T15:55:51.983Z,1.00
2023-02-05T15:57:27.500Z,0.90
2023-02-05T15:58:52.987Z,0.90
2023-02-05T16:00:23.338Z,0.80
2023-02-05T16:01:51.035Z,0.80
2023-02-05T16:03:38.901Z,0.70
2023-02-05T16:05:35.090Z,0.70
2023-02-05T16:06:58.467Z,0.60
2023-02-05T16:08:23.331Z,0.50
2023-02-05T16:09:53.815Z,0.50
2023-02-05T16:11:48.774Z,0.40
2023-02-05T16:13:16.780Z,0.40
2023-02-05T16:14:38.850Z,0.20
2023-02-05T16:16:24.339Z,0.30
2023-02-05T16:17:51.311Z,0.30
2023-02-05T16:19:24.907Z,0.30
2023-02-05T16:20:51.944Z,0.20
2023-02-05T16:22:35.867Z,0.20
2023-02-05T16:24:05.554Z,0.20
2023-02-05T16:25:52.062Z,0.10
2023-02-05T16:27:34.990Z,0.10
2023-02-05T16:29:07.736Z,0.10
2023-02-05T16:30:31.886Z,0.10
2023-02-05T16:32:05.302Z,0.00
2023-02-05T16:33:41.031Z,0.00
2023-02-05T16:35:05.790Z,0.00
2023-02-05T16:36:39.003Z,0.00
2023-02-05T16:38:03.279Z,0.00
2023-02-05T16:39:29.213Z,-0.10
2023-02-05T16:40:55.483Z,-0.10
2023-02-05T16:42:33.059Z,-0.10
2023-02-05T16:43:58.032Z,-0.10
2023-02-05T16:45:25.548Z,-0.20
2023-02-05T16:47:11.705Z,-0.10
2023-02-05T16:48:38.231Z,-0.20
2023-02-05T16:50:00.578Z,-0.20
2023-02-05T16:51:33.384Z,-0.20
2023-02-05T16:52:59.281Z,-0.30
2023-02-05T16:54:25.671Z,-0.30
2023-02-05T16:55:48.847Z,-0.30
2023-02-05T16:57:17.145Z,-0.30
2023-02-05T16:58:47.021Z,-0.30
2023-02-05T17:00:29.520Z,-0.30
2023-02-05T17:01:53.157Z,-0.30
2023-02-05T17:03:18.372Z,-0.40
2023-02-05T17:04:40.623Z,-0.40
2023-02-05T17:06:12.694Z,-0.40
2023-02-05T17:07:35.159Z,-0.40
2023-02-05T17:08:57.260Z,-0.40
2023-02-05T17:10:21.491Z,-0.40
2023-02-05T17:11:43.755Z,-0.50
2023-02-05T17:13:06.135Z,-0.50
2023-02-05T17:14:32.842Z,-0.50
2023-02-05T17:15:55.126Z,-0.50
2023-02-05T17:17:18.599Z,-0.50
2023-02-05T17:18:43.289Z,-0.50
2023-02-05T17:20:17.359Z,-0.50
2023-02-05T17:21:39.420Z,-0.50
2023-02-05T17:23:05.157Z,-0.50
2023-02-05T17:24:27.226Z,-0.50
2023-02-05T17:25:55.305Z,-0.50
2023-02-05T17:27:26.540Z,-0.50
2023-02-05T17:28:57.037Z,-0.50
2023-02-05T17:30:20.455Z,-0.50
2023-02-05T17:31:42.804Z,-0.60
2023-02-05T17:33:09.370Z,-0.60
2023-02-05T17:34:31.628Z,-0.60
2023-02-05T17:35:54.610Z,-0.60
2023-02-05T17:37:17.100Z,-0.60
2023-02-05T17:38:39.168Z,-0.70
2023-02-05T17:40:01.215Z,-0.60
2023-02-05T17:41:44.758Z,-0.70
2023-02-05T17:43:06.878Z,-0.70
2023-02-05T17:44:29.239Z,-0.60
2023-02-05T17:45:51.332Z,-0.60
2023-02-05T17:47:13.546Z,-0.60
2023-02-05T17:48:35.672Z,-0.60
2023-02-05T17:49:57.842Z,-0.70
2023-02-05T17:51:21.429Z,-0.70
2023-02-05T17:52:44.423Z,-0.70
2023-02-05T17:54:17.217Z,-0.70
2023-02-05T17:55:39.418Z,-0.70
2023-02-05T17:57:17.032Z,-0.80
2023-02-05T17:58:39.360Z,-0.80
2023-02-05T18:00:02.075Z,-0.80
2023-02-05T18:01:24.152Z,-0.80
2023-02-05T18:02:46.750Z,-0.80
2023-02-05T18:04:08.873Z,-0.80
2023-02-05T18:05:30.944Z,-0.80
2023-02-05T18:06:53.896Z,-0.80
2023-02-05T18:08:16.059Z,-0.80
2023-02-05T18:09:38.106Z,-0.80
2023-02-05T18:11:00.137Z,-0.80
2023-02-05T18:12:22.166Z,-0.80
2023-02-05T18:13:44.276Z,-0.80
2023-02-05T18:15:06.641Z,-0.80
2023-02-05T18:16:29.057Z,-0.80
2023-02-05T18:17:51.838Z,-0.80
2023-02-05T18:19:14.037Z,-0.80
2023-02-05T18:20:38.978Z,-0.80
2023-02-05T18:22:01.722Z,-0.80
2023-02-05T18:23:29.105Z,-0.70
2023-02-05T18:24:51.319Z,-0.70
2023-02-05T18:26:13.457Z,-0.70
2023-02-05T18:27:35.683Z,-0.70
2023-02-05T18:28:57.895Z,-0.60
2023-02-05T18:30:20.039Z,-0.60
2023-02-05T18:31:42.183Z,-0.60
2023-02-05T18:33:04.364Z,-0.60
2023-02-05T18:34:26.772Z,-0.60
2023-02-05T18:35:51.674Z,-0.60
2023-02-05T18:37:15.058Z,-0.60
2023-02-05T18:38:38.180Z,-0.60
2023-02-05T18:40:00.286Z,-0.60
2023-02-05T18:41:22.444Z,-0.60
2023-02-05T18:42:47.053Z,-0.60
2023-02-05T18:44:09.319Z,-0.60
2023-02-05T18:45:31.390Z,-0.70
2023-02-05T18:46:54.178Z,-0.60
2023-02-05T18:48:16.233Z,-0.70
2023-02-05T18:49:38.385Z,-0.70
2023-02-05T18:51:05.127Z,-0.70
2023-02-05T18:52:29.889Z,-0.70
2023-02-05T18:53:53.161Z,-0.70
2023-02-05T18:55:15.410Z,-0.80
2023-02-05T18:56:38.354Z,-0.80
2023-02-05T18:58:00.850Z,-0.80
2023-02-05T18:59:24.138Z,-0.80
2023-02-05T19:00:46.186Z,-0.80
2023-02-05T19:02:10.325Z,-0.80
2023-02-05T19:03:32.461Z,-0.80
2023-02-05T19:04:56.231Z,-0.80
2023-02-05T19:06:19.300Z,-0.70